Time;durP1;ratioP1;P1;durP2;ratioP2;P2;SDS_P1;SDS_P2;PMS_P1;PMS_P2;Temp;Humidity;BMP_temperature;BMP_pressure;BME280_temperature;BME280_humidity;BME280_pressure;Samples;Min_cycle;Max_cycle;Signal;HPM_P1;HPM_P2
2021/09/06 00:00:52;;;;;;;17.33;11.55;;;;;;;19.58;81.11;99118.31;5081667;28;20051;-58
2021/09/06 00:03:17;;;;;;;14.02;11.75;;;;;;;19.66;80.87;99110.28;5098985;27;20038;-59
2021/09/06 00:05:43;;;;;;;13.77;10.95;;;;;;;19.89;80.47;99123.25;5084659;28;20106;-58
2021/09/06 00:08:08;;;;;;;14.68;11.05;;;;;;;19.94;80.01;99115.59;5083004;28;20196;-58
2021/09/06 00:10:46;;;;;;;15.30;11.35;;;;;;;19.88;78.62;99113.72;5066980;27;20034;-59
2021/09/06 00:13:14;;;;;;;13.70;9.88;;;;;;;19.81;77.52;99112.88;5094951;28;20016;-57
2021/09/06 00:15:40;;;;;;;14.95;10.23;;;;;;;19.79;77.75;99120.16;5076822;28;20058;-59
2021/09/06 00:18:07;;;;;;;14.07;11.20;;;;;;;19.73;80.01;99111.19;5090976;27;20617;-59
2021/09/06 00:20:35;;;;;;;15.02;11.52;;;;;;;19.64;81.39;99116.75;5102492;27;20039;-58
2021/09/06 00:23:00;;;;;;;16.83;12.00;;;;;;;19.57;81.32;99111.44;5103558;27;20027;-59
2021/09/06 00:25:26;;;;;;;15.90;11.07;;;;;;;19.55;81.19;99114.25;5087129;27;20039;-59
2021/09/06 00:27:51;;;;;;;14.48;11.52;;;;;;;19.66;81.08;99110.28;5084262;28;20099;-59
2021/09/06 00:30:17;;;;;;;14.20;11.27;;;;;;;19.55;81.60;99084.44;5075719;28;20036;-59
2021/09/06 00:32:42;;;;;;;15.48;11.43;;;;;;;19.52;81.15;99080.34;5097499;28;20055;-61
2021/09/06 00:35:08;;;;;;;16.67;12.20;;;;;;;19.51;82.01;99080.53;5106895;27;20019;-60
2021/09/06 00:37:33;;;;;;;14.00;11.23;;;;;;;19.58;81.23;99113.84;5089393;27;20811;-60
2021/09/06 00:39:59;;;;;;;17.35;12.20;;;;;;;19.59;82.68;99128.69;5092509;27;20127;-59
2021/09/06 00:42:24;;;;;;;14.70;12.18;;;;;;;19.60;81.45;99124.22;5089486;28;20118;-60
2021/09/06 00:44:50;;;;;;;15.73;12.43;;;;;;;19.65;82.39;99134.22;5097190;27;20036;-58
2021/09/06 00:47:15;;;;;;;14.48;12.30;;;;;;;19.60;83.25;99137.41;5100491;28;20039;-59
2021/09/06 00:49:41;;;;;;;14.50;11.32;;;;;;;19.63;81.52;99152.88;5085839;28;20068;-58
2021/09/06 00:52:06;;;;;;;18.48;13.35;;;;;;;19.39;83.08;99125.88;5074128;28;20611;-59
2021/09/06 00:54:32;;;;;;;15.98;12.90;;;;;;;19.47;83.91;99147.84;5078960;28;20027;-59
2021/09/06 00:56:58;;;;;;;19.55;13.60;;;;;;;19.39;83.24;99143.53;5102846;27;20023;-60
2021/09/06 00:59:23;;;;;;;18.10;13.60;;;;;;;19.18;84.13;99108.25;5101426;27;20038;-60
2021/09/06 01:01:49;;;;;;;17.55;13.95;;;;;;;19.15;85.37;99119.19;5100471;27;20035;-58
2021/09/06 01:04:15;;;;;;;16.73;12.90;;;;;;;19.40;83.30;99137.25;5098566;27;20205;-57
2021/09/06 01:06:40;;;;;;;15.98;12.75;;;;;;;19.44;83.41;99143.78;5102411;27;20370;-58
2021/09/06 01:09:06;;;;;;;16.65;13.02;;;;;;;19.40;82.09;99148.63;5102697;27;20161;-58
2021/09/06 01:11:31;;;;;;;17.70;13.40;;;;;;;19.32;83.27;99132.09;5097780;27;20344;-59
2021/09/06 01:13:57;;;;;;;16.08;13.32;;;;;;;19.19;83.82;99141.50;5070298;28;20150;-58
2021/09/06 01:16:23;;;;;;;17.23;13.85;;;;;;;19.11;83.50;99139.00;5097367;27;21735;-59
2021/09/06 01:18:49;;;;;;;21.17;14.60;;;;;;;18.97;84.87;99148.59;5085735;28;20036;-59
2021/09/06 01:21:15;;;;;;;16.45;13.75;;;;;;;19.07;85.37;99148.28;5084227;28;20070;-60
2021/09/06 01:23:41;;;;;;;17.05;13.63;;;;;;;18.88;85.26;99144.44;5103306;27;20386;-58
2021/09/06 01:26:06;;;;;;;18.30;15.00;;;;;;;18.87;86.49;99157.78;5066929;28;20529;-58
2021/09/06 01:28:32;;;;;;;18.65;15.07;;;;;;;18.72;86.77;99150.69;5098191;28;20427;-58
2021/09/06 01:30:57;;;;;;;17.80;15.10;;;;;;;18.75;86.49;99152.97;5093917;27;20031;-59
2021/09/06 01:33:23;;;;;;;16.98;13.70;;;;;;;18.70;85.49;99146.63;5102802;27;20837;-59
2021/09/06 01:35:48;;;;;;;15.82;13.73;;;;;;;18.80;84.26;99142.69;5082932;28;20470;-57
2021/09/06 01:38:13;;;;;;;17.98;13.88;;;;;;;18.94;86.07;99148.13;5088708;27;20106;-60
2021/09/06 01:40:39;;;;;;;16.95;12.88;;;;;;;18.98;85.16;99146.75;5099687;28;20541;-58
2021/09/06 01:43:04;;;;;;;14.75;12.45;;;;;;;19.14;83.77;99145.72;5103883;27;20035;-58
2021/09/06 01:45:29;;;;;;;14.65;11.80;;;;;;;19.23;82.44;99159.59;5080485;28;20646;-59
2021/09/06 01:47:55;;;;;;;14.27;12.02;;;;;;;18.81;82.27;99154.88;5102945;27;20072;-58
2021/09/06 01:50:20;;;;;;;15.30;10.57;;;;;;;18.49;82.53;99142.91;5094913;28;20063;-56
2021/09/06 01:52:46;;;;;;;13.15;10.43;;;;;;;18.33;83.17;99159.72;5099817;27;20032;-59
2021/09/06 01:55:11;;;;;;;13.40;10.32;;;;;;;18.40;83.58;99163.25;5106724;27;20051;-55
2021/09/06 01:57:36;;;;;;;13.35;10.70;;;;;;;18.61;84.06;99156.44;5100306;28;20528;-58
2021/09/06 02:00:03;;;;;;;15.02;10.57;;;;;;;18.65;85.04;99147.16;5086566;28;20095;-58
2021/09/06 02:02:29;;;;;;;13.10;10.80;;;;;;;18.75;84.36;99163.50;5075553;28;20460;-58
2021/09/06 02:04:54;;;;;;;14.50;11.10;;;;;;;18.60;83.62;99129.28;5094514;28;20024;-58
2021/09/06 02:07:20;;;;;;;14.30;11.38;;;;;;;18.66;82.69;99156.69;5093972;28;20035;-58
2021/09/06 02:09:45;;;;;;;14.18;10.90;;;;;;;18.49;83.98;99123.66;5097885;28;20501;-56
2021/09/06 02:12:10;;;;;;;13.65;11.65;;;;;;;18.81;84.43;99169.88;5097335;28;20042;-59
2021/09/06 02:14:36;;;;;;;13.13;9.65;;;;;;;18.75;82.19;99163.50;5084505;28;20032;-58
2021/09/06 02:17:01;;;;;;;15.13;10.02;;;;;;;18.68;82.37;99167.88;5098435;28;20030;-58
2021/09/06 02:19:27;;;;;;;12.30;10.07;;;;;;;18.75;82.74;99165.31;5085521;28;20976;-58
2021/09/06 02:21:53;;;;;;;12.93;10.30;;;;;;;18.76;84.79;99156.41;5093033;28;20514;-58
2021/09/06 02:24:18;;;;;;;12.15;10.23;;;;;;;18.63;83.99;99152.59;5095915;28;20032;-58
2021/09/06 02:26:44;;;;;;;11.48;9.45;;;;;;;18.70;82.26;99165.06;5096618;28;20093;-58
2021/09/06 02:29:10;;;;;;;14.05;10.70;;;;;;;18.72;82.29;99161.22;5105948;28;20027;-61
2021/09/06 02:31:36;;;;;;;13.15;10.07;;;;;;;18.65;82.23;99155.06;5098607;28;20477;-58
2021/09/06 02:34:01;;;;;;;13.85;10.32;;;;;;;18.68;81.01;99167.06;5103774;28;20030;-56
2021/09/06 02:36:26;;;;;;;13.35;10.57;;;;;;;18.56;83.13;99161.41;5100658;28;20043;-57
2021/09/06 02:38:52;;;;;;;12.50;10.30;;;;;;;18.46;82.85;99153.00;5096548;28;20523;-58
2021/09/06 02:41:17;;;;;;;14.68;10.13;;;;;;;18.50;82.02;99155.06;5101420;28;20032;-58
2021/09/06 02:43:43;;;;;;;14.35;9.55;;;;;;;18.33;81.93;99158.91;5091020;28;20565;-58
2021/09/06 02:46:08;;;;;;;13.15;10.18;;;;;;;18.32;83.25;99150.16;5082349;28;21709;-58
2021/09/06 02:48:34;;;;;;;13.68;10.02;;;;;;;18.44;82.59;99164.53;5095099;28;20042;-59
2021/09/06 02:50:59;;;;;;;12.95;9.15;;;;;;;18.46;81.89;99155.63;5081658;28;20410;-57
2021/09/06 02:53:25;;;;;;;12.95;10.25;;;;;;;18.38;82.18;99159.16;5104862;28;20032;-58
2021/09/06 02:55:50;;;;;;;12.30;10.05;;;;;;;18.26;82.45;99158.81;5099219;28;20030;-59
2021/09/06 02:58:15;;;;;;;14.10;9.88;;;;;;;18.16;82.29;99160.88;5096526;28;20035;-58
2021/09/06 03:00:41;;;;;;;12.77;9.80;;;;;;;18.03;82.38;99159.69;5100171;28;20040;-58
2021/09/06 03:03:06;;;;;;;12.93;9.85;;;;;;;18.01;82.35;99137.97;5102055;27;20031;-57
2021/09/06 03:05:32;;;;;;;13.65;9.50;;;;;;;17.91;81.84;99121.66;5097947;27;20020;-58
2021/09/06 03:07:58;;;;;;;13.80;10.25;;;;;;;18.14;82.14;99160.22;5104060;27;20035;-58
2021/09/06 03:10:23;;;;;;;14.38;10.45;;;;;;;18.18;81.92;99154.44;5102575;27;20552;-56
2021/09/06 03:12:49;;;;;;;17.38;10.93;;;;;;;18.16;82.06;99150.34;5080814;28;20039;-58
2021/09/06 03:15:14;;;;;;;12.57;10.23;;;;;;;18.16;82.38;99140.66;5087160;28;20113;-57
2021/09/06 03:17:40;;;;;;;15.27;11.23;;;;;;;18.21;83.04;99154.06;5087157;27;20097;-59
2021/09/06 03:20:06;;;;;;;13.95;11.35;;;;;;;18.11;82.21;99135.09;5068049;28;20032;-57
2021/09/06 03:22:31;;;;;;;14.43;10.38;;;;;;;18.20;81.57;99139.28;5101786;27;20070;-58
2021/09/06 03:24:56;;;;;;;14.77;10.95;;;;;;;18.11;82.21;99129.00;5101806;27;20750;-58
2021/09/06 03:27:22;;;;;;;11.55;9.80;;;;;;;18.17;81.57;99136.19;5103844;28;20036;-58
2021/09/06 03:29:47;;;;;;;14.27;11.25;;;;;;;18.25;81.81;99134.31;5103529;27;20027;-58
2021/09/06 03:32:12;;;;;;;15.10;11.13;;;;;;;18.23;82.94;99140.72;5105488;28;20039;-58
2021/09/06 03:34:38;;;;;;;17.23;12.35;;;;;;;17.96;83.55;99071.97;5086091;27;20028;-58
2021/09/06 03:37:03;;;;;;;16.70;12.93;;;;;;;18.25;84.61;99120.31;5105174;27;20027;-58
2021/09/06 03:39:29;;;;;;;15.88;13.15;;;;;;;18.32;84.68;99118.56;5103893;27;20074;-58
2021/09/06 03:41:54;;;;;;;16.63;14.30;;;;;;;18.12;85.04;99078.03;5111298;27;20335;-58
2021/09/06 03:44:20;;;;;;;19.25;13.93;;;;;;;18.24;86.07;99116.88;5104231;28;20160;-58
2021/09/06 03:46:45;;;;;;;19.40;14.75;;;;;;;18.27;85.71;99120.94;5101725;28;20637;-57
2021/09/06 03:49:10;;;;;;;16.73;13.95;;;;;;;18.21;85.84;99116.41;5081933;28;20027;-57
2021/09/06 03:51:36;;;;;;;18.50;14.25;;;;;;;18.24;84.58;99119.50;5105007;28;20028;-57
2021/09/06 03:54:01;;;;;;;15.48;12.77;;;;;;;18.22;83.13;99123.31;5099488;27;21143;-57
2021/09/06 03:56:27;;;;;;;16.88;13.98;;;;;;;18.15;83.86;99115.31;5107479;27;20394;-57
2021/09/06 03:58:52;;;;;;;18.33;14.40;;;;;;;18.23;84.28;99128.41;5105055;27;20111;-57
2021/09/06 04:01:17;;;;;;;19.95;16.33;;;;;;;18.18;85.49;99127.28;5104008;27;20042;-57
2021/09/06 04:03:44;;;;;;;20.67;16.63;;;;;;;18.14;86.63;99133.91;5102182;27;20051;-58
2021/09/06 04:06:10;;;;;;;19.35;15.95;;;;;;;18.15;86.71;99112.69;5097061;27;20151;-58
2021/09/06 04:08:35;;;;;;;20.55;16.25;;;;;;;18.25;86.78;99121.13;5104866;27;20036;-58
2021/09/06 04:11:00;;;;;;;20.23;17.02;;;;;;;18.30;86.56;99122.41;5099899;28;20031;-58
2021/09/06 04:13:26;;;;;;;18.98;15.23;;;;;;;18.32;86.26;99123.03;5103787;27;20829;-58
2021/09/06 04:15:51;;;;;;;20.23;15.20;;;;;;;18.33;86.96;99122.06;5104347;27;20034;-58
2021/09/06 04:18:17;;;;;;;17.83;14.90;;;;;;;18.16;86.92;99097.72;5099474;28;20104;-58
2021/09/06 04:20:43;;;;;;;17.70;14.73;;;;;;;18.40;86.37;99118.50;5103436;27;20019;-58
2021/09/06 04:23:08;;;;;;;18.90;14.55;;;;;;;18.37;85.50;99110.16;5092607;28;20035;-57
2021/09/06 04:25:34;;;;;;;17.92;13.60;;;;;;;18.34;84.81;99106.03;5081652;28;20031;-58
2021/09/06 04:27:59;;;;;;;17.08;14.00;;;;;;;18.31;85.21;99111.69;5080813;28;20115;-58
2021/09/06 04:30:25;;;;;;;16.95;13.32;;;;;;;18.30;84.85;99117.13;5097633;27;20024;-58
2021/09/06 04:32:50;;;;;;;16.83;12.27;;;;;;;18.26;84.27;99121.94;5099576;28;20501;-58
2021/09/06 04:35:15;;;;;;;15.82;12.20;;;;;;;18.12;83.90;99094.63;5103491;27;20103;-57
2021/09/06 04:37:41;;;;;;;16.27;12.88;;;;;;;18.03;84.64;99093.91;5085713;27;20591;-57
2021/09/06 04:40:07;;;;;;;17.63;12.60;;;;;;;18.19;84.69;99136.84;5095605;28;20027;-58
2021/09/06 04:42:32;;;;;;;15.20;12.65;;;;;;;17.96;85.12;99102.69;5097452;27;20036;-58
2021/09/06 04:44:58;;;;;;;15.70;12.07;;;;;;;18.04;84.65;99100.00;5094407;27;20499;-58
2021/09/06 04:47:23;;;;;;;16.15;12.30;;;;;;;18.04;84.87;99103.44;5101459;27;20393;-59
2021/09/06 04:49:49;;;;;;;15.77;11.73;;;;;;;18.23;84.17;99138.09;5104385;27;20038;-58
2021/09/06 04:52:14;;;;;;;14.27;10.88;;;;;;;18.25;83.59;99138.72;5097697;28;20033;-58
2021/09/06 04:54:40;;;;;;;14.10;10.30;;;;;;;18.37;83.31;99141.75;5095943;27;20042;-57
2021/09/06 04:57:05;;;;;;;12.60;10.88;;;;;;;18.12;83.00;99104.34;5103690;28;20028;-58
2021/09/06 04:59:30;;;;;;;13.13;10.48;;;;;;;18.26;82.93;99140.38;5094615;27;20032;-55
2021/09/06 05:01:56;;;;;;;14.00;10.50;;;;;;;18.33;82.64;99146.56;5103388;28;20437;-57
2021/09/06 05:04:21;;;;;;;15.63;10.77;;;;;;;18.33;82.63;99151.00;5081003;27;20015;-57
2021/09/06 05:06:47;;;;;;;12.80;10.05;;;;;;;18.30;82.61;99149.53;5101332;27;20896;-57
2021/09/06 05:09:12;;;;;;;12.43;10.23;;;;;;;18.27;82.37;99151.72;5101704;28;20027;-56
2021/09/06 05:11:38;;;;;;;16.70;11.23;;;;;;;17.98;82.09;99101.53;5097825;27;20028;-57
2021/09/06 05:14:03;;;;;;;13.88;10.32;;;;;;;18.30;82.39;99151.34;5080525;28;20020;-58
2021/09/06 05:16:29;;;;;;;13.93;11.50;;;;;;;18.18;82.65;99140.44;5104945;27;20522;-57
2021/09/06 05:18:54;;;;;;;14.70;10.75;;;;;;;18.32;82.55;99155.44;5103779;27;20034;-57
2021/09/06 05:21:20;;;;;;;13.35;10.48;;;;;;;18.25;83.51;99146.63;5101550;27;20039;-57
2021/09/06 05:23:46;;;;;;;14.82;10.88;;;;;;;18.23;83.25;99160.00;5101760;27;20753;-58
2021/09/06 05:26:11;;;;;;;14.57;11.02;;;;;;;18.18;83.65;99158.88;5080677;28;20458;-58
2021/09/06 05:28:37;;;;;;;13.50;10.73;;;;;;;17.95;83.69;99120.31;5096976;27;20040;-57
2021/09/06 05:31:03;;;;;;;13.88;9.90;;;;;;;18.11;82.84;99150.91;5096291;27;20023;-57
2021/09/06 05:33:31;;;;;;;14.07;10.20;;;;;;;18.16;82.81;99161.72;5099793;27;20023;-57
2021/09/06 05:35:57;;;;;;;14.82;11.07;;;;;;;18.16;82.68;99166.97;5101969;28;20039;-57
2021/09/06 05:38:22;;;;;;;14.75;11.25;;;;;;;17.97;82.24;99135.91;5074681;27;21240;-57
2021/09/06 05:40:48;;;;;;;14.50;10.48;;;;;;;18.15;81.70;99167.94;5104734;27;20477;-57
2021/09/06 05:43:14;;;;;;;12.25;10.02;;;;;;;18.22;80.84;99176.75;5104405;27;20103;-58
2021/09/06 05:45:39;;;;;;;12.30;10.23;;;;;;;18.22;80.81;99165.44;5103646;27;20104;-58
2021/09/06 05:48:05;;;;;;;12.93;10.45;;;;;;;17.91;81.17;99147.97;5102899;28;20016;-57
2021/09/06 05:50:30;;;;;;;14.73;11.25;;;;;;;18.16;81.61;99185.41;5100445;27;20051;-58
2021/09/06 05:52:55;;;;;;;14.35;10.70;;;;;;;18.18;81.60;99186.03;5102668;28;20434;-58
2021/09/06 05:55:21;;;;;;;13.75;10.00;;;;;;;18.16;80.94;99181.91;5105879;27;20023;-57
2021/09/06 05:57:47;;;;;;;14.05;10.35;;;;;;;18.16;80.56;99189.81;5090244;28;20074;-58
2021/09/06 06:00:12;;;;;;;11.80;9.70;;;;;;;18.19;79.78;99197.38;5094548;27;20639;-58
2021/09/06 06:02:38;;;;;;;13.77;10.25;;;;;;;18.24;79.66;99182.66;5099207;28;20104;-57
2021/09/06 06:05:04;;;;;;;12.15;9.93;;;;;;;18.19;80.43;99192.09;5105056;27;20646;-57
2021/09/06 06:07:30;;;;;;;14.48;10.88;;;;;;;18.17;80.77;99197.53;5105464;27;20026;-57
2021/09/06 06:09:55;;;;;;;13.00;9.73;;;;;;;18.20;79.90;99193.75;5097068;28;20024;-58
2021/09/06 06:12:20;;;;;;;12.30;9.55;;;;;;;18.19;79.98;99195.53;5079336;28;20080;-57
2021/09/06 06:14:46;;;;;;;12.40;9.68;;;;;;;17.99;80.56;99160.22;5084258;28;20028;-57
2021/09/06 06:17:11;;;;;;;13.18;9.88;;;;;;;18.22;80.96;99200.47;5098770;28;20099;-57
2021/09/06 06:19:37;;;;;;;12.32;9.75;;;;;;;18.22;81.46;99200.47;5104334;28;20568;-58
2021/09/06 06:22:03;;;;;;;12.60;9.88;;;;;;;18.21;81.52;99205.91;5100202;28;20126;-57
2021/09/06 06:24:28;;;;;;;12.65;9.75;;;;;;;18.16;82.26;99214.34;5104482;28;20027;-57
2021/09/06 06:26:54;;;;;;;12.70;10.07;;;;;;;18.22;81.77;99208.34;5100523;28;20024;-57
2021/09/06 06:29:19;;;;;;;13.75;9.82;;;;;;;18.25;81.52;99212.44;5082263;28;20020;-57
2021/09/06 06:31:44;;;;;;;11.82;9.77;;;;;;;18.15;81.87;99186.38;5105148;28;20035;-56
2021/09/06 06:34:10;;;;;;;12.38;9.48;;;;;;;18.02;80.33;99175.66;5103628;28;20023;-57
2021/09/06 06:36:35;;;;;;;12.10;9.27;;;;;;;18.23;80.23;99217.91;5104442;28;20405;-58
2021/09/06 06:39:01;;;;;;;11.38;8.98;;;;;;;18.23;80.32;99212.63;5096024;28;20031;-58
2021/09/06 06:41:26;;;;;;;12.60;9.57;;;;;;;18.25;80.92;99226.44;5104347;28;20035;-58
2021/09/06 06:43:51;;;;;;;11.27;8.75;;;;;;;18.30;80.14;99214.53;5097870;28;20204;-57
2021/09/06 06:46:17;;;;;;;11.38;8.63;;;;;;;18.29;79.30;99221.63;5106553;28;20035;-57
2021/09/06 06:48:43;;;;;;;10.93;8.27;;;;;;;18.33;78.14;99224.72;5098196;27;20437;-58
2021/09/06 06:51:08;;;;;;;11.45;8.07;;;;;;;18.44;77.85;99222.44;5103315;27;20024;-58
2021/09/06 06:53:34;;;;;;;11.93;8.80;;;;;;;18.28;77.39;99192.84;5083050;28;20389;-58
2021/09/06 06:55:59;;;;;;;9.98;7.82;;;;;;;18.56;76.06;99219.34;5096582;27;20023;-58
2021/09/06 06:58:26;;;;;;;11.93;8.20;;;;;;;18.52;75.55;99220.72;5108953;27;20028;-58
2021/09/06 07:00:51;;;;;;;13.27;8.18;;;;;;;18.51;75.49;99211.16;5090335;28;20024;-58
2021/09/06 07:03:17;;;;;;;11.13;7.30;;;;;;;18.60;74.58;99216.19;5086016;28;20450;-58
2021/09/06 07:05:42;;;;;;;11.80;7.78;;;;;;;18.48;75.12;99195.75;5107618;27;20833;-58
2021/09/06 07:08:08;;;;;;;10.70;7.85;;;;;;;18.66;75.41;99217.28;5104994;27;20055;-58
2021/09/06 07:10:33;;;;;;;10.30;7.63;;;;;;;18.67;75.68;99216.25;5102985;28;20031;-58
2021/09/06 07:12:59;;;;;;;10.98;8.18;;;;;;;18.68;76.59;99217.91;5094312;27;20135;-58
2021/09/06 07:15:24;;;;;;;9.32;7.18;;;;;;;18.72;75.38;99221.00;5104822;27;20024;-58
2021/09/06 07:17:50;;;;;;;10.40;7.85;;;;;;;18.74;76.15;99226.91;5106812;27;20031;-58
2021/09/06 07:20:15;;;;;;;13.27;9.15;;;;;;;18.69;76.92;99221.34;5101225;28;20023;-57
2021/09/06 07:22:40;;;;;;;11.63;8.73;;;;;;;18.43;76.62;99186.56;5101729;27;20039;-57
2021/09/06 07:25:06;;;;;;;10.52;8.55;;;;;;;18.61;76.73;99215.16;5104262;27;20031;-57
2021/09/06 07:27:32;;;;;;;12.05;8.18;;;;;;;18.61;77.17;99222.25;5105530;27;20032;-58
2021/09/06 07:29:57;;;;;;;10.93;8.45;;;;;;;18.69;76.98;99227.44;5100099;27;20574;-57
2021/09/06 07:32:22;;;;;;;11.95;8.52;;;;;;;18.63;77.11;99218.44;5098788;27;20575;-57
2021/09/06 07:34:48;;;;;;;10.00;7.03;;;;;;;18.46;75.57;99188.03;5103090;27;20432;-57
2021/09/06 07:37:13;;;;;;;9.38;6.93;;;;;;;18.49;75.42;99182.41;5107516;27;20506;-57
2021/09/06 07:39:39;;;;;;;9.30;6.88;;;;;;;18.42;74.34;99165.72;5090905;27;20106;-58
2021/09/06 07:42:05;;;;;;;10.68;7.60;;;;;;;18.76;74.55;99225.69;5104165;27;20028;-58
2021/09/06 07:44:31;;;;;;;10.48;6.82;;;;;;;18.86;74.72;99222.03;5103723;27;20355;-57
2021/09/06 07:46:57;;;;;;;8.88;6.80;;;;;;;18.54;74.89;99198.47;5083935;28;20537;-58
2021/09/06 07:49:22;;;;;;;9.00;6.97;;;;;;;18.72;74.79;99232.34;5103334;28;20505;-58
2021/09/06 07:51:52;;;;;;;9.27;6.93;;;;;;;18.75;74.79;99237.25;5103290;28;20043;-58
2021/09/06 07:54:25;;;;;;;9.95;6.80;;;;;;;18.86;72.81;99243.09;5082301;28;20028;-60
2021/09/06 07:56:53;;;;;;;10.05;7.40;;;;;;;18.52;73.15;99200.47;5111918;27;20023;-59
2021/09/06 07:59:19;;;;;;;9.77;6.47;;;;;;;18.87;73.79;99242.09;5106746;27;20047;-57
2021/09/06 08:01:45;;;;;;;10.52;6.75;;;;;;;18.96;74.16;99249.69;5103177;27;20032;-57
2021/09/06 08:04:11;;;;;;;8.63;6.40;;;;;;;18.94;72.68;99254.34;5099787;27;20444;-58
2021/09/06 08:06:36;;;;;;;8.45;6.50;;;;;;;18.98;73.57;99254.78;5102915;27;20032;-57
2021/09/06 08:09:02;;;;;;;10.90;6.68;;;;;;;18.95;71.34;99244.63;5102737;27;20065;-57
2021/09/06 08:11:27;;;;;;;8.25;6.03;;;;;;;18.97;71.47;99256.63;5103505;27;20031;-58
2021/09/06 08:13:52;;;;;;;12.75;6.68;;;;;;;18.95;72.06;99255.19;5103978;27;20034;-58
2021/09/06 08:16:18;;;;;;;9.25;6.43;;;;;;;18.87;72.17;99253.44;5102944;28;20035;-58
2021/09/06 08:18:43;;;;;;;8.57;6.30;;;;;;;18.97;71.68;99258.44;5101321;28;20035;-58
2021/09/06 08:21:09;;;;;;;9.85;6.50;;;;;;;19.00;71.29;99260.69;5104722;27;20031;-57
2021/09/06 08:23:34;;;;;;;9.23;5.82;;;;;;;18.97;71.86;99261.06;5085809;27;20033;-57
2021/09/06 08:26:00;;;;;;;10.35;6.35;;;;;;;19.04;72.20;99255.88;5104606;27;20273;-58
2021/09/06 08:28:25;;;;;;;8.88;6.18;;;;;;;18.86;71.87;99230.75;5081391;27;20462;-58
2021/09/06 08:30:50;;;;;;;11.23;5.93;;;;;;;19.02;70.64;99264.78;5104304;27;20474;-58
2021/09/06 08:33:16;;;;;;;8.88;6.10;;;;;;;18.96;71.82;99262.06;5081711;27;20024;-57
2021/09/06 08:35:42;;;;;;;8.23;5.93;;;;;;;18.95;71.27;99261.25;5085670;28;20028;-57
2021/09/06 08:38:07;;;;;;;8.80;5.63;;;;;;;19.04;70.41;99261.16;5086127;28;20023;-57
2021/09/06 08:40:33;;;;;;;8.30;5.63;;;;;;;19.05;70.25;99263.59;5100923;27;20363;-57
2021/09/06 08:43:02;;;;;;;10.05;5.80;;;;;;;19.06;70.23;99265.25;5099460;27;20023;-57
2021/09/06 08:45:28;;;;;;;7.82;5.88;;;;;;;19.03;69.49;99223.44;5105092;27;20501;-57
2021/09/06 08:47:54;;;;;;;9.75;5.60;;;;;;;19.34;69.34;99254.00;5103878;27;20028;-57
2021/09/06 08:50:19;;;;;;;11.82;6.13;;;;;;;19.58;67.85;99252.84;5099089;27;20511;-57
2021/09/06 08:52:44;;;;;;;8.77;5.85;;;;;;;19.67;68.02;99257.00;5101945;27;20016;-60
2021/09/06 08:55:10;;;;;;;9.82;6.30;;;;;;;19.71;68.50;99257.44;5102949;27;20034;-58
2021/09/06 08:57:36;;;;;;;10.05;6.13;;;;;;;19.61;67.36;99226.09;5100570;27;20071;-57
2021/09/06 09:00:05;;;;;;;8.80;5.75;;;;;;;19.82;66.83;99262.22;5103857;28;20035;-59
2021/09/06 09:02:33;;;;;;;8.97;5.40;;;;;;;19.71;64.75;99231.06;5091813;27;20023;-58
2021/09/06 09:05:04;;;;;;;8.80;5.78;;;;;;;19.99;65.43;99260.19;5107881;27;20272;-57
2021/09/06 09:07:30;;;;;;;7.97;5.57;;;;;;;19.97;65.79;99249.00;5081947;28;20047;-58
2021/09/06 09:09:56;;;;;;;9.00;5.88;;;;;;;19.97;65.92;99252.44;5077906;28;20335;-57
2021/09/06 09:12:22;;;;;;;7.80;5.40;;;;;;;20.12;65.50;99251.56;5096492;28;20028;-57
2021/09/06 09:14:50;;;;;;;7.85;5.32;;;;;;;20.08;64.65;99235.28;5102103;28;20387;-57
2021/09/06 09:17:15;;;;;;;7.15;5.18;;;;;;;20.15;64.50;99232.66;5092275;28;20214;-56
2021/09/06 09:19:41;;;;;;;7.85;5.10;;;;;;;20.35;62.58;99243.38;5100825;28;20041;-57
2021/09/06 09:22:09;;;;;;;8.38;5.20;;;;;;;20.44;63.05;99242.22;5093678;28;20100;-57
2021/09/06 09:24:37;;;;;;;9.93;5.50;;;;;;;20.26;62.34;99207.56;5101977;28;20039;-57
2021/09/06 09:27:04;;;;;;;7.43;5.60;;;;;;;20.49;62.25;99229.25;5083702;28;20027;-57
2021/09/06 09:29:30;;;;;;;8.00;5.75;;;;;;;20.45;62.31;99206.88;5100119;28;20105;-59
2021/09/06 09:31:57;;;;;;;8.68;5.38;;;;;;;20.86;59.75;99237.84;5101012;28;20130;-55
2021/09/06 09:34:23;;;;;;;9.45;4.90;;;;;;;20.99;59.55;99236.25;5098001;28;20027;-57
2021/09/06 09:36:52;;;;;;;9.55;5.75;;;;;;;21.08;59.47;99208.63;5081509;27;20913;-57
2021/09/06 09:39:19;;;;;;;7.70;5.65;;;;;;;21.28;58.17;99225.38;5097657;27;20544;-57
2021/09/06 09:41:46;;;;;;;7.72;4.93;;;;;;;21.00;57.25;99198.25;5101299;27;20032;-58
2021/09/06 09:44:17;;;;;;;7.63;4.93;;;;;;;21.35;58.47;99229.88;5098831;28;20105;-57
2021/09/06 09:46:59;;;;;;;8.52;5.10;;;;;;;21.38;55.74;99232.13;5099597;28;20016;-57
2021/09/06 09:49:26;;;;;;;8.35;4.90;;;;;;;21.43;56.24;99222.56;5082732;28;20032;-56
2021/09/06 09:51:52;;;;;;;7.47;5.22;;;;;;;21.60;57.89;99215.09;5086326;27;20485;-58
2021/09/06 09:54:18;;;;;;;9.90;5.22;;;;;;;21.81;57.76;99207.97;5083689;27;20031;-57
2021/09/06 09:56:44;;;;;;;8.88;5.15;;;;;;;21.87;56.94;99220.41;5092180;28;20422;-57
2021/09/06 09:59:11;;;;;;;7.43;5.10;;;;;;;21.86;58.16;99185.19;5077761;28;20062;-57
2021/09/06 10:01:42;;;;;;;8.77;5.05;;;;;;;21.76;57.69;99216.53;5096532;28;20821;-57
2021/09/06 10:04:09;;;;;;;8.63;4.70;;;;;;;21.81;57.64;99206.16;5095533;28;20083;-57
2021/09/06 10:06:36;;;;;;;8.25;5.18;;;;;;;22.02;58.59;99204.31;5082045;28;20040;-57
2021/09/06 10:09:01;;;;;;;9.68;5.45;;;;;;;21.80;56.46;99186.00;5082230;28;20073;-57
2021/09/06 10:11:38;;;;;;;8.23;4.80;;;;;;;22.13;55.52;99200.25;5089383;28;20035;-57
2021/09/06 10:14:26;;;;;;;9.15;5.43;;;;;;;22.32;52.54;99194.13;5088690;28;20894;-57
2021/09/06 10:17:00;;;;;;;8.43;5.00;;;;;;;22.57;51.02;99198.75;5101873;28;20352;-58
2021/09/06 10:19:37;;;;;;;9.63;5.50;;;;;;;22.60;51.25;99193.06;5099083;28;20524;-58
2021/09/06 10:22:02;;;;;;;8.32;5.05;;;;;;;22.61;51.48;99189.38;5099208;28;20031;-58
2021/09/06 10:24:28;;;;;;;8.60;5.05;;;;;;;22.75;49.78;99190.94;5077735;28;20020;-58
2021/09/06 10:27:03;;;;;;;8.68;5.05;;;;;;;22.70;49.32;99184.66;5102023;28;20023;-57
2021/09/06 10:29:28;;;;;;;8.60;5.28;;;;;;;22.81;48.93;99186.66;5105384;28;20571;-57
2021/09/06 10:32:01;;;;;;;7.45;4.72;;;;;;;22.76;48.29;99187.28;5099139;28;20035;-56
2021/09/06 10:34:29;;;;;;;8.60;4.70;;;;;;;22.90;48.70;99180.06;5098515;28;20086;-57
2021/09/06 10:36:59;;;;;;;7.13;4.65;;;;;;;22.94;50.06;99181.28;5104867;28;20076;-58
2021/09/06 10:39:25;;;;;;;8.60;4.97;;;;;;;23.02;49.81;99177.59;5088389;28;20028;-57
2021/09/06 10:41:52;;;;;;;7.00;5.00;;;;;;;23.18;48.84;99177.13;5101468;28;20027;-57
2021/09/06 10:44:19;;;;;;;7.70;4.45;;;;;;;23.13;48.00;99173.50;5075312;28;20566;-58
2021/09/06 10:46:57;;;;;;;7.97;4.55;;;;;;;23.13;47.89;99169.00;5093948;28;20123;-57
2021/09/06 10:49:24;;;;;;;8.18;5.50;;;;;;;23.21;49.22;99173.22;5098740;28;20526;-58
2021/09/06 10:51:49;;;;;;;7.47;4.97;;;;;;;23.34;48.44;99164.38;5102192;28;20405;-58
2021/09/06 10:54:15;;;;;;;6.72;4.75;;;;;;;23.35;47.39;99160.69;5082771;28;20110;-58
2021/09/06 10:56:40;;;;;;;7.72;5.22;;;;;;;23.23;46.77;99160.56;5089887;28;20020;-57
2021/09/06 10:59:06;;;;;;;9.63;5.15;;;;;;;23.27;48.29;99151.13;5095076;28;20024;-58
2021/09/06 11:01:32;;;;;;;7.10;4.63;;;;;;;23.43;47.77;99147.16;5102303;28;20085;-58
2021/09/06 11:03:58;;;;;;;6.65;4.65;;;;;;;23.52;47.44;99150.38;5095951;28;20032;-58
2021/09/06 11:06:28;;;;;;;8.05;5.00;;;;;;;23.46;46.55;99144.09;5085797;28;20027;-57
2021/09/06 11:08:53;;;;;;;8.70;5.10;;;;;;;23.58;47.22;99152.97;5094206;28;20098;-57
2021/09/06 11:11:19;;;;;;;6.70;4.55;;;;;;;23.71;45.21;99154.72;5084870;28;20118;-58
2021/09/06 11:13:46;;;;;;;8.88;5.40;;;;;;;23.67;44.78;99148.19;5096248;28;21018;-57
2021/09/06 11:16:14;;;;;;;9.13;5.07;;;;;;;23.54;46.87;99145.66;5091362;28;20030;-57
2021/09/06 11:18:44;;;;;;;8.10;4.95;;;;;;;23.82;45.25;99145.25;5095446;28;20452;-58